createdAt,value
2022-09-03T00:02:45.540Z,11.99
2022-09-03T00:08:04.011Z,12.00
2022-09-03T00:13:06.998Z,11.92
2022-09-03T00:18:18.310Z,11.91
2022-09-03T00:23:29.719Z,11.81
2022-09-03T00:28:53.272Z,11.73
2022-09-03T00:34:00.535Z,11.70
2022-09-03T00:39:02.557Z,11.49
2022-09-03T00:44:11.169Z,11.46
2022-09-03T00:49:51.639Z,11.38
2022-09-03T00:55:13.485Z,11.29
2022-09-03T01:00:17.601Z,11.12
2022-09-03T01:05:41.096Z,11.07
2022-09-03T01:11:04.436Z,11.01
2022-09-03T01:16:32.661Z,10.97
2022-09-03T01:22:03.426Z,10.88
2022-09-03T01:27:30.116Z,10.88
2022-09-03T01:33:07.999Z,10.85
2022-09-03T01:38:33.509Z,10.81
2022-09-03T01:43:37.922Z,10.72
2022-09-03T01:48:46.794Z,10.62
2022-09-03T01:54:10.881Z,10.53
2022-09-03T01:59:55.632Z,10.43
2022-09-03T02:11:24.665Z,10.10
2022-09-03T02:16:30.973Z,10.05
2022-09-03T02:21:35.926Z,10.04
2022-09-03T02:26:37.944Z,10.03
2022-09-03T02:31:40.077Z,10.03
2022-09-03T02:36:45.920Z,9.95
2022-09-03T02:46:59.189Z,10.06
2022-09-03T02:52:06.878Z,10.06
2022-09-03T02:58:44.656Z,10.07
2022-09-03T03:11:26.237Z,9.94
2022-09-03T03:16:28.462Z,10.01
2022-09-03T03:21:37.032Z,9.82
2022-09-03T03:26:45.980Z,9.80
2022-09-03T03:31:47.917Z,9.95
2022-09-03T03:36:49.845Z,9.82
2022-09-03T03:41:52.649Z,9.71
2022-09-03T03:46:54.617Z,9.66
2022-09-03T03:51:56.628Z,9.61
2022-09-03T03:56:58.634Z,9.57
2022-09-03T04:02:00.997Z,9.60
2022-09-03T04:07:03.252Z,9.64
2022-09-03T04:12:10.968Z,9.67
2022-09-03T04:17:12.950Z,9.57
2022-09-03T04:22:15.858Z,9.79
2022-09-03T04:27:17.938Z,9.83
2022-09-03T04:32:38.356Z,9.76
2022-09-03T04:37:40.483Z,9.86
2022-09-03T04:42:42.746Z,9.80
2022-09-03T04:47:55.980Z,9.88
2022-09-03T04:53:07.045Z,10.00
2022-09-03T04:58:09.984Z,10.07
2022-09-03T05:03:12.806Z,10.09
2022-09-03T05:08:14.815Z,9.99
2022-09-03T05:13:17.777Z,10.36
2022-09-03T05:18:19.824Z,10.55
2022-09-03T05:23:22.464Z,10.53
2022-09-03T05:28:27.931Z,10.85
2022-09-03T05:33:30.366Z,10.94
2022-09-03T05:38:32.462Z,10.95
2022-09-03T05:43:35.686Z,11.40
2022-09-03T05:48:45.226Z,11.55
2022-09-03T05:53:54.827Z,11.63
2022-09-03T05:59:01.106Z,11.94
2022-09-03T06:04:05.189Z,12.07
2022-09-03T06:09:10.807Z,12.28
2022-09-03T06:14:14.374Z,12.51
2022-09-03T06:19:16.424Z,12.59
2022-09-03T06:24:21.584Z,12.86
2022-09-03T06:29:23.738Z,13.05
2022-09-03T06:34:27.207Z,13.40
2022-09-03T06:39:29.266Z,13.53
2022-09-03T06:44:31.489Z,13.92
2022-09-03T06:49:33.505Z,14.11
2022-09-03T06:54:35.433Z,14.35
2022-09-03T06:59:37.580Z,14.60
2022-09-03T07:04:39.520Z,14.79
2022-09-03T07:09:44.035Z,14.88
2022-09-03T07:14:51.094Z,15.25
2022-09-03T07:19:53.348Z,15.45
2022-09-03T07:24:55.300Z,15.59
2022-09-03T07:29:57.515Z,16.02
2022-09-03T07:34:59.428Z,15.99
2022-09-03T07:40:02.058Z,16.37
2022-09-03T07:45:10.082Z,16.48
2022-09-03T07:50:12.074Z,16.76
2022-09-03T07:55:14.845Z,17.06
2022-09-03T08:00:17.754Z,17.41
2022-09-03T08:05:23.032Z,17.55
2022-09-03T08:10:26.493Z,17.82
2022-09-03T08:15:28.845Z,18.05
2022-09-03T08:20:30.906Z,18.13
2022-09-03T08:25:33.213Z,18.48
2022-09-03T08:30:36.396Z,18.67
2022-09-03T08:35:39.758Z,18.89
2022-09-03T08:40:43.514Z,19.00
2022-09-03T08:45:45.924Z,19.20
2022-09-03T08:50:55.522Z,19.08
2022-09-03T08:56:04.482Z,19.27
2022-09-03T09:01:10.174Z,19.41
2022-09-03T09:06:35.004Z,19.56
2022-09-03T09:11:47.341Z,19.60
2022-09-03T09:17:02.420Z,19.85
2022-09-03T09:22:13.254Z,19.75
2022-09-03T09:27:17.471Z,19.86
2022-09-03T09:32:21.709Z,19.98
2022-09-03T09:37:24.675Z,20.15
2022-09-03T09:42:29.989Z,20.05
2022-09-03T09:47:39.098Z,20.01
2022-09-03T09:52:41.117Z,20.24
2022-09-03T09:57:43.150Z,20.24
2022-09-03T10:02:54.769Z,20.34
2022-09-03T10:07:57.160Z,20.30
2022-09-03T10:13:09.521Z,20.56
2022-09-03T10:18:26.419Z,20.00
2022-09-03T10:23:32.735Z,20.53
2022-09-03T10:28:40.523Z,20.56
2022-09-03T10:33:53.462Z,20.26
2022-09-03T10:39:05.346Z,20.66
2022-09-03T10:44:21.281Z,20.74
2022-09-03T10:49:23.484Z,20.64
2022-09-03T10:54:29.401Z,20.73
2022-09-03T11:00:00.175Z,20.89
2022-09-03T11:05:16.310Z,21.05
2022-09-03T11:10:33.561Z,20.78
2022-09-03T11:15:40.235Z,20.88
2022-09-03T11:20:43.107Z,21.07
2022-09-03T11:25:51.250Z,21.23
2022-09-03T11:31:21.548Z,21.46
2022-09-03T11:36:38.842Z,21.49
2022-09-03T11:41:40.828Z,21.36
2022-09-03T11:46:54.293Z,21.34
2022-09-03T11:52:02.982Z,21.46
2022-09-03T11:57:16.603Z,21.90
2022-09-03T12:02:31.285Z,21.82
2022-09-03T12:07:42.537Z,21.58
2022-09-03T12:13:06.041Z,21.83
2022-09-03T12:18:20.812Z,22.10
2022-09-03T12:23:49.701Z,22.38
2022-09-03T12:28:55.508Z,22.46
2022-09-03T12:34:03.070Z,22.54
2022-09-03T12:39:13.014Z,22.64
2022-09-03T12:44:15.726Z,22.28
2022-09-03T12:49:33.656Z,22.13
2022-09-03T12:54:42.841Z,22.58
2022-09-03T12:59:49.775Z,22.77
2022-09-03T13:04:52.824Z,22.60
2022-09-03T13:10:04.280Z,23.03
2022-09-03T13:15:12.825Z,22.73
2022-09-03T13:20:29.385Z,22.88
2022-09-03T13:25:38.764Z,22.33
2022-09-03T13:30:52.659Z,22.66
2022-09-03T13:36:26.496Z,22.52
2022-09-03T13:41:37.606Z,22.99
2022-09-03T13:46:52.467Z,22.92
2022-09-03T13:52:01.896Z,23.26
2022-09-03T13:57:16.443Z,23.13
2022-09-03T14:02:41.213Z,22.82
2022-09-03T14:08:08.953Z,23.13
2022-09-03T14:13:38.306Z,23.03
2022-09-03T14:18:51.687Z,23.38
2022-09-03T14:23:59.685Z,23.26
2022-09-03T14:29:05.285Z,23.40
2022-09-03T14:34:26.073Z,22.87
2022-09-03T14:39:38.383Z,22.94
2022-09-03T14:45:00.628Z,23.12
2022-09-03T14:50:50.288Z,23.06
2022-09-03T14:56:18.538Z,22.70
2022-09-03T15:01:38.905Z,22.12
2022-09-03T15:07:06.624Z,22.29
2022-09-03T15:12:33.977Z,22.61
2022-09-03T15:17:56.638Z,22.82
2022-09-03T15:23:13.539Z,23.18
2022-09-03T15:28:18.357Z,23.16
2022-09-03T15:33:44.289Z,22.97
2022-09-03T15:39:11.537Z,22.66
2022-09-03T15:44:19.772Z,22.53
2022-09-03T15:49:46.714Z,22.28
2022-09-03T15:54:57.597Z,22.16
2022-09-03T16:00:07.376Z,22.33
2022-09-03T16:05:24.754Z,22.14
2022-09-03T16:10:40.205Z,22.27
2022-09-03T16:15:47.398Z,22.37
2022-09-03T16:21:08.240Z,22.14
2022-09-03T16:26:15.213Z,21.96
2022-09-03T16:31:26.231Z,21.74
2022-09-03T16:36:53.823Z,21.58
2022-09-03T16:42:13.771Z,21.37
2022-09-03T16:47:44.802Z,21.14
2022-09-03T16:53:09.464Z,20.93
2022-09-03T16:58:30.909Z,20.62
2022-09-03T17:04:10.501Z,20.49
2022-09-03T17:09:40.418Z,20.07
2022-09-03T17:14:46.565Z,19.99
2022-09-03T17:20:26.171Z,19.83
2022-09-03T17:26:01.886Z,19.58
2022-09-03T17:31:21.579Z,19.39
2022-09-03T17:36:31.383Z,19.24
2022-09-03T17:41:45.436Z,19.10
2022-09-03T17:47:15.560Z,18.86
2022-09-03T17:52:35.736Z,18.55
2022-09-03T17:58:01.347Z,18.26
2022-09-03T18:03:26.528Z,17.97
2022-09-03T18:08:49.344Z,17.76
2022-09-03T18:14:15.925Z,17.50
2022-09-03T18:19:54.863Z,17.26
2022-09-03T18:25:17.637Z,17.10
2022-09-03T18:30:44.679Z,16.94
2022-09-03T18:36:07.922Z,16.80
2022-09-03T18:41:53.307Z,16.82
2022-09-03T18:53:18.418Z,16.87
2022-09-03T18:58:45.583Z,16.87
2022-09-03T19:04:32.586Z,16.74
2022-09-03T19:10:08.712Z,16.52
2022-09-03T19:16:06.330Z,16.44
2022-09-03T19:21:38.988Z,16.24
2022-09-03T19:27:46.068Z,15.96
2022-09-03T19:33:25.761Z,15.81
2022-09-03T19:39:01.593Z,15.65
2022-09-03T19:44:56.004Z,15.52
2022-09-03T19:50:22.204Z,15.39
2022-09-03T19:55:48.750Z,15.30
2022-09-03T20:01:09.486Z,15.17
2022-09-03T20:06:31.090Z,15.07
2022-09-03T20:11:33.782Z,14.97
2022-09-03T20:17:16.410Z,15.08
2022-09-03T20:22:28.625Z,15.02
2022-09-03T20:27:36.481Z,15.01
2022-09-03T20:32:38.442Z,15.04
2022-09-03T20:38:06.791Z,14.99
2022-09-03T20:43:23.481Z,14.96
2022-09-03T20:48:50.252Z,14.94
2022-09-03T20:54:13.977Z,15.01
2022-09-03T20:59:25.072Z,15.06
2022-09-03T21:04:59.540Z,14.98
2022-09-03T21:10:13.632Z,14.93
2022-09-03T21:15:30.869Z,14.89
2022-09-03T21:21:03.596Z,14.88
2022-09-03T21:26:29.613Z,14.82
2022-09-03T21:31:40.550Z,14.69
2022-09-03T21:36:43.672Z,14.67
2022-09-03T21:42:09.540Z,14.70
2022-09-03T21:47:17.157Z,14.77
2022-09-03T21:52:27.137Z,14.65
2022-09-03T21:57:36.789Z,14.69
2022-09-03T22:02:38.918Z,14.64
2022-09-03T22:07:46.775Z,14.59
2022-09-03T22:13:14.854Z,14.53
2022-09-03T22:18:25.626Z,14.57
2022-09-03T22:23:44.861Z,14.49
2022-09-03T22:28:55.378Z,14.41
2022-09-03T22:34:27.665Z,14.38
2022-09-03T22:39:40.862Z,14.26
2022-09-03T22:45:18.353Z,14.14
2022-09-03T22:50:37.112Z,14.10
2022-09-03T22:55:41.626Z,13.92
2022-09-03T23:01:08.145Z,13.93
2022-09-03T23:06:21.066Z,13.80
2022-09-03T23:11:27.006Z,13.73
2022-09-03T23:16:55.030Z,13.73
2022-09-03T23:22:00.421Z,13.63
2022-09-03T23:27:06.878Z,13.63
2022-09-03T23:32:09.782Z,13.48
2022-09-03T23:37:39.548Z,13.48
2022-09-03T23:43:07.245Z,13.45
2022-09-03T23:48:21.942Z,13.35
2022-09-03T23:53:53.127Z,13.09
2022-09-03T23:58:58.072Z,13.17
